Startpagina
METAR-TAF:

METAR-TAF

Vliegvelden :

Antofagasta, Chili

Aeropuerto Nacional Andrés Sabella Gálvez

breedte: 23-26S, lengte: 070-26W, hoogte: 135 m

Actueel weer

Dit bericht is 42 minuten geleden gemaakt, om 00:00 UTC
Wind 6 kt uit het zuidzuidwesten
Temperatuur 14°C
Vochtigheid 82%
Druk 1016 hPa
Zicht: 7000 m
Verspreide wolken op 900 ft
Geheel bewolkt op 1300 ft

METAR: SCFA 260000Z 20006KT 7000 SCT009 OVC013 14/11 Q1016 NOSIG

Tijdstip: 20:42 (00:42 UTC)

Verwachting

Dit bericht is 2 uur en het 2 minuten geleden gemaakt, om 22:40 UTC
Verwachting geldig van 26 om 00 UTC tot 26 om 24 UTC
Wind 8 kt uit het zuidzuidwesten
Zicht: 8000 m
Geheel bewolkt op 1500 ft
Wijzigt naar
van 26 om 05 UTC tot 26 om 07 UTC
Wind 3 kt uit het zuiden
Wijzigt naar
van 26 om 17 UTC tot 26 om 19 UTC
Wind 10 kt uit het zuidzuidwesten
Gebroken wolken op 1700 ft

TAF: SCFA 252240Z 2600/2624 21008KT 8000 OVC015 TN13/2605Z TX16/2617Z BECMG 2605/2607 17003KT BECMG 2617/2619 20010KT BKN017

Waarnemingen en weersverwachtingen van meer dan 4000 vliegvelden (METAR en TAF).

De beschikbare stations zijn de gele en rode punten op de kaart.

Ga met uw muis naar het station om de naam te zien.

Klik dan om waarnemingen en weersverwachtingen te zien.

kaart wijzigen: klik op de groene knoppen met een zwart kruis om in te zoomen, op de groene knop met een streepje om uit te zoomen of op de groene pijlen voor aangrenzende kaarten.


METAR-TAF: